sensor_id;sensor_type;location;lat;lon;timestamp;P1;durP1;ratioP1;P2;durP2;ratioP2
46835;SDS011;32573;51.290;6.926;2022-10-22T00:00:11;3.70;;;1.85;;
46835;SDS011;32573;51.290;6.926;2022-10-22T00:02:41;3.88;;;2.10;;
46835;SDS011;32573;51.290;6.926;2022-10-22T00:05:10;4.57;;;1.98;;
46835;SDS011;32573;51.290;6.926;2022-10-22T00:07:38;5.68;;;2.08;;
46835;SDS011;32573;51.290;6.926;2022-10-22T00:10:08;4.18;;;2.00;;
46835;SDS011;32573;51.290;6.926;2022-10-22T00:12:38;3.97;;;2.10;;
46835;SDS011;32573;51.290;6.926;2022-10-22T00:15:07;5.82;;;2.30;;
46835;SDS011;32573;51.290;6.926;2022-10-22T00:17:37;6.35;;;1.98;;
46835;SDS011;32573;51.290;6.926;2022-10-22T00:20:07;5.13;;;2.22;;
46835;SDS011;32573;51.290;6.926;2022-10-22T00:22:36;5.32;;;2.05;;
46835;SDS011;32573;51.290;6.926;2022-10-22T00:25:06;4.20;;;1.90;;
46835;SDS011;32573;51.290;6.926;2022-10-22T00:27:35;5.03;;;2.15;;
46835;SDS011;32573;51.290;6.926;2022-10-22T00:30:07;3.35;;;1.80;;
46835;SDS011;32573;51.290;6.926;2022-10-22T00:32:36;4.60;;;2.10;;
46835;SDS011;32573;51.290;6.926;2022-10-22T00:35:05;3.92;;;2.10;;
46835;SDS011;32573;51.290;6.926;2022-10-22T00:37:34;5.35;;;2.20;;
46835;SDS011;32573;51.290;6.926;2022-10-22T00:40:03;3.58;;;2.00;;
46835;SDS011;32573;51.290;6.926;2022-10-22T00:42:32;4.80;;;2.00;;
46835;SDS011;32573;51.290;6.926;2022-10-22T00:45:09;5.15;;;2.20;;
46835;SDS011;32573;51.290;6.926;2022-10-22T00:47:48;4.38;;;2.10;;
46835;SDS011;32573;51.290;6.926;2022-10-22T00:50:22;4.03;;;1.90;;
46835;SDS011;32573;51.290;6.926;2022-10-22T00:52:54;4.85;;;2.20;;
46835;SDS011;32573;51.290;6.926;2022-10-22T00:55:24;3.53;;;2.00;;
46835;SDS011;32573;51.290;6.926;2022-10-22T00:57:55;3.92;;;2.00;;
46835;SDS011;32573;51.290;6.926;2022-10-22T01:00:26;3.65;;;2.00;;
46835;SDS011;32573;51.290;6.926;2022-10-22T01:02:55;3.75;;;2.00;;
46835;SDS011;32573;51.290;6.926;2022-10-22T01:05:25;5.80;;;2.30;;
46835;SDS011;32573;51.290;6.926;2022-10-22T01:07:55;4.00;;;1.98;;
46835;SDS011;32573;51.290;6.926;2022-10-22T01:10:31;3.85;;;1.85;;
46835;SDS011;32573;51.290;6.926;2022-10-22T01:13:13;6.15;;;2.28;;
46835;SDS011;32573;51.290;6.926;2022-10-22T01:15:52;5.72;;;2.22;;
46835;SDS011;32573;51.290;6.926;2022-10-22T01:18:28;6.80;;;2.10;;
46835;SDS011;32573;51.290;6.926;2022-10-22T01:21:05;4.78;;;2.00;;
46835;SDS011;32573;51.290;6.926;2022-10-22T01:23:45;4.47;;;2.00;;
46835;SDS011;32573;51.290;6.926;2022-10-22T01:26:30;5.00;;;2.08;;
46835;SDS011;32573;51.290;6.926;2022-10-22T01:29:12;5.65;;;2.60;;
46835;SDS011;32573;51.290;6.926;2022-10-22T01:34:18;5.55;;;2.05;;
46835;SDS011;32573;51.290;6.926;2022-10-22T01:36:47;5.50;;;2.45;;
46835;SDS011;32573;51.290;6.926;2022-10-22T01:39:18;6.10;;;2.30;;
46835;SDS011;32573;51.290;6.926;2022-10-22T01:41:49;4.60;;;2.42;;
46835;SDS011;32573;51.290;6.926;2022-10-22T01:44:28;4.30;;;2.05;;
46835;SDS011;32573;51.290;6.926;2022-10-22T01:47:01;4.25;;;2.20;;
46835;SDS011;32573;51.290;6.926;2022-10-22T01:49:45;8.48;;;2.35;;
46835;SDS011;32573;51.290;6.926;2022-10-22T01:52:31;4.40;;;2.20;;
46835;SDS011;32573;51.290;6.926;2022-10-22T01:55:24;5.25;;;2.17;;
46835;SDS011;32573;51.290;6.926;2022-10-22T01:58:01;5.30;;;2.17;;
46835;SDS011;32573;51.290;6.926;2022-10-22T02:00:39;5.80;;;1.90;;
46835;SDS011;32573;51.290;6.926;2022-10-22T02:03:13;4.22;;;2.10;;
46835;SDS011;32573;51.290;6.926;2022-10-22T02:05:50;4.55;;;2.50;;
46835;SDS011;32573;51.290;6.926;2022-10-22T02:08:22;3.88;;;2.08;;
46835;SDS011;32573;51.290;6.926;2022-10-22T02:10:54;4.63;;;2.17;;
46835;SDS011;32573;51.290;6.926;2022-10-22T02:13:25;5.07;;;2.13;;
46835;SDS011;32573;51.290;6.926;2022-10-22T02:15:58;4.65;;;2.05;;
46835;SDS011;32573;51.290;6.926;2022-10-22T02:18:28;4.43;;;2.17;;
46835;SDS011;32573;51.290;6.926;2022-10-22T02:21:04;5.00;;;2.20;;
46835;SDS011;32573;51.290;6.926;2022-10-22T02:23:38;4.47;;;2.13;;
46835;SDS011;32573;51.290;6.926;2022-10-22T02:26:08;5.88;;;2.30;;
46835;SDS011;32573;51.290;6.926;2022-10-22T02:28:44;4.25;;;2.28;;
46835;SDS011;32573;51.290;6.926;2022-10-22T02:31:18;4.07;;;1.83;;
46835;SDS011;32573;51.290;6.926;2022-10-22T02:33:51;5.93;;;2.53;;
46835;SDS011;32573;51.290;6.926;2022-10-22T02:36:23;5.57;;;2.47;;
46835;SDS011;32573;51.290;6.926;2022-10-22T02:38:52;4.47;;;2.15;;
46835;SDS011;32573;51.290;6.926;2022-10-22T02:41:21;5.55;;;2.40;;
46835;SDS011;32573;51.290;6.926;2022-10-22T02:43:52;5.32;;;2.60;;
46835;SDS011;32573;51.290;6.926;2022-10-22T02:46:23;4.40;;;2.50;;
46835;SDS011;32573;51.290;6.926;2022-10-22T02:48:52;5.50;;;2.85;;
46835;SDS011;32573;51.290;6.926;2022-10-22T02:51:21;4.57;;;2.58;;
46835;SDS011;32573;51.290;6.926;2022-10-22T02:53:49;5.47;;;2.67;;
46835;SDS011;32573;51.290;6.926;2022-10-22T02:56:17;5.65;;;2.60;;
46835;SDS011;32573;51.290;6.926;2022-10-22T02:58:46;4.97;;;2.42;;
46835;SDS011;32573;51.290;6.926;2022-10-22T03:01:14;5.05;;;2.60;;
46835;SDS011;32573;51.290;6.926;2022-10-22T03:03:44;5.95;;;2.63;;
46835;SDS011;32573;51.290;6.926;2022-10-22T03:06:12;6.03;;;2.80;;
46835;SDS011;32573;51.290;6.926;2022-10-22T03:08:40;5.50;;;2.67;;
46835;SDS011;32573;51.290;6.926;2022-10-22T03:11:09;4.35;;;2.40;;
46835;SDS011;32573;51.290;6.926;2022-10-22T03:13:37;6.40;;;2.72;;
46835;SDS011;32573;51.290;6.926;2022-10-22T03:16:06;4.93;;;2.58;;
46835;SDS011;32573;51.290;6.926;2022-10-22T03:18:34;4.47;;;2.53;;
46835;SDS011;32573;51.290;6.926;2022-10-22T03:21:05;4.22;;;2.30;;
46835;SDS011;32573;51.290;6.926;2022-10-22T03:23:37;6.05;;;2.50;;
46835;SDS011;32573;51.290;6.926;2022-10-22T03:26:07;6.07;;;2.70;;
46835;SDS011;32573;51.290;6.926;2022-10-22T03:28:37;5.22;;;2.45;;
46835;SDS011;32573;51.290;6.926;2022-10-22T03:31:07;4.60;;;2.10;;
46835;SDS011;32573;51.290;6.926;2022-10-22T03:33:36;5.75;;;2.65;;
46835;SDS011;32573;51.290;6.926;2022-10-22T03:36:06;5.22;;;2.55;;
46835;SDS011;32573;51.290;6.926;2022-10-22T03:38:36;5.45;;;2.72;;
46835;SDS011;32573;51.290;6.926;2022-10-22T03:41:06;5.03;;;2.55;;
46835;SDS011;32573;51.290;6.926;2022-10-22T03:43:35;7.47;;;2.70;;
46835;SDS011;32573;51.290;6.926;2022-10-22T03:46:04;5.18;;;2.60;;
46835;SDS011;32573;51.290;6.926;2022-10-22T03:48:33;5.05;;;2.67;;
46835;SDS011;32573;51.290;6.926;2022-10-22T03:51:01;6.47;;;2.47;;
46835;SDS011;32573;51.290;6.926;2022-10-22T03:53:31;4.38;;;2.40;;
46835;SDS011;32573;51.290;6.926;2022-10-22T03:56:00;5.18;;;2.70;;
46835;SDS011;32573;51.290;6.926;2022-10-22T03:58:28;4.38;;;2.50;;
46835;SDS011;32573;51.290;6.926;2022-10-22T04:00:56;5.15;;;2.50;;
46835;SDS011;32573;51.290;6.926;2022-10-22T04:03:30;5.47;;;2.63;;
46835;SDS011;32573;51.290;6.926;2022-10-22T04:06:02;4.78;;;2.60;;
46835;SDS011;32573;51.290;6.926;2022-10-22T04:08:33;5.50;;;2.65;;
46835;SDS011;32573;51.290;6.926;2022-10-22T04:11:02;5.63;;;2.80;;
46835;SDS011;32573;51.290;6.926;2022-10-22T04:13:30;5.70;;;2.47;;
46835;SDS011;32573;51.290;6.926;2022-10-22T04:16:05;4.65;;;2.40;;
46835;SDS011;32573;51.290;6.926;2022-10-22T04:18:34;4.80;;;2.50;;
46835;SDS011;32573;51.290;6.926;2022-10-22T04:21:03;5.82;;;2.85;;
46835;SDS011;32573;51.290;6.926;2022-10-22T04:23:33;4.10;;;2.42;;
46835;SDS011;32573;51.290;6.926;2022-10-22T04:26:02;5.85;;;2.92;;
46835;SDS011;32573;51.290;6.926;2022-10-22T04:28:32;5.50;;;2.90;;
46835;SDS011;32573;51.290;6.926;2022-10-22T04:31:05;6.55;;;2.67;;
46835;SDS011;32573;51.290;6.926;2022-10-22T04:33:35;4.75;;;2.60;;
46835;SDS011;32573;51.290;6.926;2022-10-22T04:36:07;4.68;;;2.30;;
46835;SDS011;32573;51.290;6.926;2022-10-22T04:38:38;6.97;;;2.67;;
46835;SDS011;32573;51.290;6.926;2022-10-22T04:41:07;4.85;;;2.35;;
46835;SDS011;32573;51.290;6.926;2022-10-22T04:43:37;6.13;;;2.60;;
46835;SDS011;32573;51.290;6.926;2022-10-22T04:46:05;4.50;;;2.60;;
46835;SDS011;32573;51.290;6.926;2022-10-22T04:48:35;5.50;;;2.97;;
46835;SDS011;32573;51.290;6.926;2022-10-22T04:51:04;8.60;;;3.25;;
46835;SDS011;32573;51.290;6.926;2022-10-22T04:53:33;6.03;;;3.20;;
46835;SDS011;32573;51.290;6.926;2022-10-22T04:56:07;7.25;;;3.00;;
46835;SDS011;32573;51.290;6.926;2022-10-22T04:58:36;5.05;;;2.72;;
46835;SDS011;32573;51.290;6.926;2022-10-22T05:01:09;5.68;;;2.92;;
46835;SDS011;32573;51.290;6.926;2022-10-22T05:03:38;8.65;;;3.55;;
46835;SDS011;32573;51.290;6.926;2022-10-22T05:06:08;7.50;;;3.55;;
46835;SDS011;32573;51.290;6.926;2022-10-22T05:08:41;5.50;;;2.97;;
46835;SDS011;32573;51.290;6.926;2022-10-22T05:11:12;5.18;;;3.03;;
46835;SDS011;32573;51.290;6.926;2022-10-22T05:13:42;5.93;;;3.05;;
46835;SDS011;32573;51.290;6.926;2022-10-22T05:16:11;5.78;;;2.85;;
46835;SDS011;32573;51.290;6.926;2022-10-22T05:18:41;6.97;;;2.80;;
46835;SDS011;32573;51.290;6.926;2022-10-22T05:21:11;5.05;;;3.03;;
46835;SDS011;32573;51.290;6.926;2022-10-22T05:23:41;6.20;;;2.67;;
46835;SDS011;32573;51.290;6.926;2022-10-22T05:26:12;6.15;;;3.30;;
46835;SDS011;32573;51.290;6.926;2022-10-22T05:28:41;5.68;;;2.80;;
46835;SDS011;32573;51.290;6.926;2022-10-22T05:31:10;5.15;;;2.50;;
46835;SDS011;32573;51.290;6.926;2022-10-22T05:33:40;6.07;;;2.70;;
46835;SDS011;32573;51.290;6.926;2022-10-22T05:36:10;5.90;;;2.67;;
46835;SDS011;32573;51.290;6.926;2022-10-22T05:38:40;7.38;;;2.72;;
46835;SDS011;32573;51.290;6.926;2022-10-22T05:41:09;5.80;;;3.10;;
46835;SDS011;32573;51.290;6.926;2022-10-22T05:43:40;5.43;;;2.78;;
46835;SDS011;32573;51.290;6.926;2022-10-22T05:46:09;6.43;;;2.60;;
46835;SDS011;32573;51.290;6.926;2022-10-22T05:48:39;5.20;;;2.58;;
46835;SDS011;32573;51.290;6.926;2022-10-22T05:51:09;5.25;;;2.72;;
46835;SDS011;32573;51.290;6.926;2022-10-22T05:53:40;6.40;;;3.05;;
46835;SDS011;32573;51.290;6.926;2022-10-22T05:56:10;4.78;;;2.47;;
46835;SDS011;32573;51.290;6.926;2022-10-22T05:58:42;5.35;;;3.00;;
46835;SDS011;32573;51.290;6.926;2022-10-22T06:01:12;5.25;;;3.00;;
46835;SDS011;32573;51.290;6.926;2022-10-22T06:03:41;5.32;;;2.92;;
46835;SDS011;32573;51.290;6.926;2022-10-22T06:06:14;7.30;;;3.15;;
46835;SDS011;32573;51.290;6.926;2022-10-22T06:08:46;6.32;;;3.20;;
46835;SDS011;32573;51.290;6.926;2022-10-22T06:11:16;5.85;;;3.00;;
46835;SDS011;32573;51.290;6.926;2022-10-22T06:13:47;6.38;;;3.30;;
46835;SDS011;32573;51.290;6.926;2022-10-22T06:16:17;6.38;;;3.58;;
46835;SDS011;32573;51.290;6.926;2022-10-22T06:18:45;6.10;;;3.50;;
46835;SDS011;32573;51.290;6.926;2022-10-22T06:21:14;6.32;;;3.17;;
46835;SDS011;32573;51.290;6.926;2022-10-22T06:23:43;6.15;;;3.05;;
46835;SDS011;32573;51.290;6.926;2022-10-22T06:26:11;7.00;;;3.22;;
46835;SDS011;32573;51.290;6.926;2022-10-22T06:28:39;5.63;;;2.95;;
46835;SDS011;32573;51.290;6.926;2022-10-22T06:31:09;6.13;;;3.22;;
46835;SDS011;32573;51.290;6.926;2022-10-22T06:33:37;5.95;;;3.40;;
46835;SDS011;32573;51.290;6.926;2022-10-22T06:36:12;6.47;;;3.33;;
46835;SDS011;32573;51.290;6.926;2022-10-22T06:38:42;5.72;;;3.22;;
46835;SDS011;32573;51.290;6.926;2022-10-22T06:41:11;5.35;;;3.10;;
46835;SDS011;32573;51.290;6.926;2022-10-22T06:43:41;5.88;;;3.47;;
46835;SDS011;32573;51.290;6.926;2022-10-22T06:46:15;6.10;;;3.38;;
46835;SDS011;32573;51.290;6.926;2022-10-22T06:48:47;6.97;;;3.17;;
46835;SDS011;32573;51.290;6.926;2022-10-22T06:51:16;5.30;;;3.00;;
46835;SDS011;32573;51.290;6.926;2022-10-22T06:53:45;7.43;;;3.00;;
46835;SDS011;32573;51.290;6.926;2022-10-22T06:56:14;6.47;;;3.10;;
46835;SDS011;32573;51.290;6.926;2022-10-22T06:58:45;6.97;;;3.35;;
46835;SDS011;32573;51.290;6.926;2022-10-22T07:01:16;5.82;;;3.10;;
46835;SDS011;32573;51.290;6.926;2022-10-22T07:03:46;5.57;;;3.00;;
46835;SDS011;32573;51.290;6.926;2022-10-22T07:06:17;6.05;;;3.10;;
46835;SDS011;32573;51.290;6.926;2022-10-22T07:08:46;5.53;;;2.95;;
46835;SDS011;32573;51.290;6.926;2022-10-22T07:11:15;7.13;;;3.40;;
46835;SDS011;32573;51.290;6.926;2022-10-22T07:13:46;6.22;;;3.22;;
46835;SDS011;32573;51.290;6.926;2022-10-22T07:16:16;6.22;;;3.42;;
46835;SDS011;32573;51.290;6.926;2022-10-22T07:18:45;8.95;;;3.70;;
46835;SDS011;32573;51.290;6.926;2022-10-22T07:21:15;6.03;;;3.60;;
46835;SDS011;32573;51.290;6.926;2022-10-22T07:23:46;9.63;;;3.60;;
46835;SDS011;32573;51.290;6.926;2022-10-22T07:26:15;6.38;;;3.10;;
46835;SDS011;32573;51.290;6.926;2022-10-22T07:28:46;7.35;;;3.58;;
46835;SDS011;32573;51.290;6.926;2022-10-22T07:31:16;5.85;;;3.20;;
46835;SDS011;32573;51.290;6.926;2022-10-22T07:33:45;6.05;;;3.20;;
46835;SDS011;32573;51.290;6.926;2022-10-22T07:36:14;5.30;;;3.03;;
46835;SDS011;32573;51.290;6.926;2022-10-22T07:38:44;6.78;;;3.22;;
46835;SDS011;32573;51.290;6.926;2022-10-22T07:41:13;10.07;;;3.20;;
46835;SDS011;32573;51.290;6.926;2022-10-22T07:43:43;7.88;;;3.50;;
46835;SDS011;32573;51.290;6.926;2022-10-22T07:46:11;5.30;;;2.90;;
46835;SDS011;32573;51.290;6.926;2022-10-22T07:48:41;6.53;;;2.85;;
46835;SDS011;32573;51.290;6.926;2022-10-22T07:51:09;5.80;;;2.90;;
46835;SDS011;32573;51.290;6.926;2022-10-22T07:53:37;7.20;;;3.00;;
46835;SDS011;32573;51.290;6.926;2022-10-22T07:56:06;5.43;;;2.95;;
46835;SDS011;32573;51.290;6.926;2022-10-22T07:58:35;5.18;;;2.80;;
46835;SDS011;32573;51.290;6.926;2022-10-22T08:01:04;6.20;;;2.90;;
46835;SDS011;32573;51.290;6.926;2022-10-22T08:03:32;5.30;;;3.08;;
46835;SDS011;32573;51.290;6.926;2022-10-22T08:06:03;6.68;;;2.90;;
46835;SDS011;32573;51.290;6.926;2022-10-22T08:08:31;6.25;;;3.47;;
46835;SDS011;32573;51.290;6.926;2022-10-22T08:11:00;7.07;;;3.35;;
46835;SDS011;32573;51.290;6.926;2022-10-22T08:13:29;8.02;;;3.13;;
46835;SDS011;32573;51.290;6.926;2022-10-22T08:15:57;6.40;;;3.10;;
46835;SDS011;32573;51.290;6.926;2022-10-22T08:18:26;6.20;;;3.10;;
46835;SDS011;32573;51.290;6.926;2022-10-22T08:20:55;5.85;;;2.90;;
46835;SDS011;32573;51.290;6.926;2022-10-22T08:23:25;5.72;;;2.88;;
46835;SDS011;32573;51.290;6.926;2022-10-22T08:25:55;4.97;;;2.65;;
46835;SDS011;32573;51.290;6.926;2022-10-22T08:28:24;6.20;;;2.70;;
46835;SDS011;32573;51.290;6.926;2022-10-22T08:30:54;6.78;;;3.10;;
46835;SDS011;32573;51.290;6.926;2022-10-22T08:33:23;5.78;;;2.60;;
46835;SDS011;32573;51.290;6.926;2022-10-22T08:35:51;5.07;;;2.38;;
46835;SDS011;32573;51.290;6.926;2022-10-22T08:38:20;6.60;;;2.80;;
46835;SDS011;32573;51.290;6.926;2022-10-22T08:40:50;5.40;;;2.67;;
46835;SDS011;32573;51.290;6.926;2022-10-22T08:43:28;5.20;;;2.60;;
46835;SDS011;32573;51.290;6.926;2022-10-22T08:46:20;5.88;;;2.42;;
46835;SDS011;32573;51.290;6.926;2022-10-22T08:49:02;6.25;;;2.60;;
46835;SDS011;32573;51.290;6.926;2022-10-22T08:51:36;6.57;;;2.70;;
46835;SDS011;32573;51.290;6.926;2022-10-22T08:57:02;5.53;;;2.35;;
46835;SDS011;32573;51.290;6.926;2022-10-22T09:02:17;8.50;;;2.50;;
46835;SDS011;32573;51.290;6.926;2022-10-22T09:04:59;5.78;;;2.13;;
46835;SDS011;32573;51.290;6.926;2022-10-22T09:07:39;5.50;;;2.13;;
46835;SDS011;32573;51.290;6.926;2022-10-22T09:10:10;6.47;;;2.50;;
46835;SDS011;32573;51.290;6.926;2022-10-22T09:12:40;4.95;;;2.45;;
46835;SDS011;32573;51.290;6.926;2022-10-22T09:15:11;4.80;;;2.30;;
46835;SDS011;32573;51.290;6.926;2022-10-22T09:17:44;4.72;;;2.30;;
46835;SDS011;32573;51.290;6.926;2022-10-22T09:20:23;6.75;;;2.33;;
46835;SDS011;32573;51.290;6.926;2022-10-22T09:22:57;4.18;;;1.83;;
46835;SDS011;32573;51.290;6.926;2022-10-22T09:25:32;5.28;;;2.10;;
46835;SDS011;32573;51.290;6.926;2022-10-22T09:28:04;4.75;;;2.03;;
46835;SDS011;32573;51.290;6.926;2022-10-22T09:30:34;6.68;;;2.17;;
46835;SDS011;32573;51.290;6.926;2022-10-22T09:33:06;5.28;;;1.90;;
46835;SDS011;32573;51.290;6.926;2022-10-22T09:35:50;4.60;;;2.05;;
46835;SDS011;32573;51.290;6.926;2022-10-22T09:38:20;4.00;;;1.70;;
46835;SDS011;32573;51.290;6.926;2022-10-22T09:40:54;6.32;;;1.80;;
46835;SDS011;32573;51.290;6.926;2022-10-22T09:43:25;4.03;;;1.80;;
46835;SDS011;32573;51.290;6.926;2022-10-22T09:45:57;6.68;;;1.98;;
46835;SDS011;32573;51.290;6.926;2022-10-22T09:48:27;5.20;;;2.10;;
46835;SDS011;32573;51.290;6.926;2022-10-22T09:51:03;5.93;;;1.90;;
46835;SDS011;32573;51.290;6.926;2022-10-22T09:53:36;4.27;;;1.80;;
46835;SDS011;32573;51.290;6.926;2022-10-22T09:56:09;5.30;;;1.85;;
46835;SDS011;32573;51.290;6.926;2022-10-22T09:58:46;5.07;;;1.73;;
46835;SDS011;32573;51.290;6.926;2022-10-22T10:01:17;4.25;;;1.70;;
46835;SDS011;32573;51.290;6.926;2022-10-22T10:03:48;4.55;;;1.50;;
46835;SDS011;32573;51.290;6.926;2022-10-22T10:06:17;5.88;;;1.73;;
46835;SDS011;32573;51.290;6.926;2022-10-22T10:08:47;7.15;;;2.25;;
46835;SDS011;32573;51.290;6.926;2022-10-22T10:11:18;4.40;;;1.60;;
46835;SDS011;32573;51.290;6.926;2022-10-22T10:14:00;5.65;;;1.70;;
46835;SDS011;32573;51.290;6.926;2022-10-22T10:16:39;4.85;;;1.60;;
46835;SDS011;32573;51.290;6.926;2022-10-22T10:19:21;7.97;;;2.20;;
46835;SDS011;32573;51.290;6.926;2022-10-22T10:22:00;7.00;;;1.90;;
46835;SDS011;32573;51.290;6.926;2022-10-22T10:24:44;4.65;;;1.60;;
46835;SDS011;32573;51.290;6.926;2022-10-22T10:27:21;8.00;;;1.90;;
46835;SDS011;32573;51.290;6.926;2022-10-22T10:29:59;6.72;;;1.80;;
46835;SDS011;32573;51.290;6.926;2022-10-22T10:32:35;6.38;;;1.80;;
46835;SDS011;32573;51.290;6.926;2022-10-22T10:35:19;4.55;;;1.65;;
46835;SDS011;32573;51.290;6.926;2022-10-22T10:37:55;4.57;;;1.67;;
46835;SDS011;32573;51.290;6.926;2022-10-22T10:40:39;6.65;;;1.63;;
46835;SDS011;32573;51.290;6.926;2022-10-22T10:43:12;4.82;;;1.65;;
46835;SDS011;32573;51.290;6.926;2022-10-22T10:45:49;6.65;;;1.90;;
46835;SDS011;32573;51.290;6.926;2022-10-22T10:51:20;6.63;;;1.77;;
46835;SDS011;32573;51.290;6.926;2022-10-22T10:54:05;7.75;;;1.80;;
46835;SDS011;32573;51.290;6.926;2022-10-22T10:56:44;5.10;;;1.70;;
46835;SDS011;32573;51.290;6.926;2022-10-22T10:59:17;5.75;;;1.52;;
46835;SDS011;32573;51.290;6.926;2022-10-22T11:01:58;5.28;;;1.85;;
46835;SDS011;32573;51.290;6.926;2022-10-22T11:07:43;6.38;;;1.60;;
46835;SDS011;32573;51.290;6.926;2022-10-22T11:10:23;4.18;;;1.27;;
46835;SDS011;32573;51.290;6.926;2022-10-22T11:12:58;7.40;;;1.60;;
46835;SDS011;32573;51.290;6.926;2022-10-22T11:15:33;4.80;;;1.40;;
46835;SDS011;32573;51.290;6.926;2022-10-22T11:18:10;3.72;;;1.20;;
46835;SDS011;32573;51.290;6.926;2022-10-22T11:20:49;7.25;;;1.30;;
46835;SDS011;32573;51.290;6.926;2022-10-22T11:23:22;4.18;;;1.00;;
46835;SDS011;32573;51.290;6.926;2022-10-22T11:25:57;4.50;;;1.00;;
46835;SDS011;32573;51.290;6.926;2022-10-22T11:28:28;3.15;;;1.10;;
46835;SDS011;32573;51.290;6.926;2022-10-22T11:31:01;7.07;;;1.45;;
46835;SDS011;32573;51.290;6.926;2022-10-22T11:33:36;4.72;;;1.10;;
46835;SDS011;32573;51.290;6.926;2022-10-22T11:36:14;4.45;;;1.17;;
46835;SDS011;32573;51.290;6.926;2022-10-22T11:38:45;4.72;;;1.05;;
46835;SDS011;32573;51.290;6.926;2022-10-22T11:41:15;5.95;;;1.25;;
46835;SDS011;32573;51.290;6.926;2022-10-22T11:43:52;4.85;;;1.40;;
46835;SDS011;32573;51.290;6.926;2022-10-22T11:46:27;2.63;;;1.20;;
46835;SDS011;32573;51.290;6.926;2022-10-22T11:49:13;6.07;;;1.40;;
46835;SDS011;32573;51.290;6.926;2022-10-22T11:51:44;3.40;;;1.20;;
46835;SDS011;32573;51.290;6.926;2022-10-22T11:54:25;3.13;;;1.10;;
46835;SDS011;32573;51.290;6.926;2022-10-22T11:56:57;6.20;;;1.27;;
46835;SDS011;32573;51.290;6.926;2022-10-22T11:59:46;5.32;;;1.50;;
46835;SDS011;32573;51.290;6.926;2022-10-22T12:02:27;6.20;;;1.77;;
46835;SDS011;32573;51.290;6.926;2022-10-22T12:08:14;4.95;;;1.60;;
46835;SDS011;32573;51.290;6.926;2022-10-22T12:10:59;6.40;;;1.90;;
46835;SDS011;32573;51.290;6.926;2022-10-22T12:13:32;5.63;;;1.60;;
46835;SDS011;32573;51.290;6.926;2022-10-22T12:16:19;6.18;;;1.70;;
46835;SDS011;32573;51.290;6.926;2022-10-22T12:19:11;5.57;;;1.88;;
46835;SDS011;32573;51.290;6.926;2022-10-22T12:21:46;8.20;;;1.80;;
46835;SDS011;32573;51.290;6.926;2022-10-22T12:24:16;4.78;;;1.52;;
46835;SDS011;32573;51.290;6.926;2022-10-22T12:26:46;4.75;;;1.90;;
46835;SDS011;32573;51.290;6.926;2022-10-22T12:29:19;6.25;;;1.80;;
46835;SDS011;32573;51.290;6.926;2022-10-22T12:31:51;5.38;;;1.30;;
46835;SDS011;32573;51.290;6.926;2022-10-22T12:34:21;5.85;;;1.30;;
46835;SDS011;32573;51.290;6.926;2022-10-22T12:36:52;6.05;;;1.10;;
46835;SDS011;32573;51.290;6.926;2022-10-22T12:39:21;2.72;;;1.10;;
46835;SDS011;32573;51.290;6.926;2022-10-22T12:41:52;3.33;;;1.10;;
46835;SDS011;32573;51.290;6.926;2022-10-22T12:44:21;6.32;;;1.10;;
46835;SDS011;32573;51.290;6.926;2022-10-22T12:46:50;4.30;;;1.13;;
46835;SDS011;32573;51.290;6.926;2022-10-22T12:49:24;4.57;;;1.23;;
46835;SDS011;32573;51.290;6.926;2022-10-22T12:52:00;3.95;;;1.08;;
46835;SDS011;32573;51.290;6.926;2022-10-22T12:54:35;5.75;;;1.10;;
46835;SDS011;32573;51.290;6.926;2022-10-22T12:57:04;5.68;;;1.30;;
46835;SDS011;32573;51.290;6.926;2022-10-22T12:59:39;5.78;;;1.50;;
46835;SDS011;32573;51.290;6.926;2022-10-22T13:02:16;3.28;;;1.27;;
46835;SDS011;32573;51.290;6.926;2022-10-22T13:05:08;6.05;;;1.90;;
46835;SDS011;32573;51.290;6.926;2022-10-22T13:07:46;4.80;;;1.67;;
46835;SDS011;32573;51.290;6.926;2022-10-22T13:10:17;4.38;;;1.70;;
46835;SDS011;32573;51.290;6.926;2022-10-22T13:12:53;5.47;;;1.50;;
46835;SDS011;32573;51.290;6.926;2022-10-22T13:15:36;5.00;;;1.40;;
46835;SDS011;32573;51.290;6.926;2022-10-22T13:18:12;3.33;;;1.30;;
46835;SDS011;32573;51.290;6.926;2022-10-22T13:20:50;5.07;;;1.55;;
46835;SDS011;32573;51.290;6.926;2022-10-22T13:23:22;4.32;;;1.60;;
46835;SDS011;32573;51.290;6.926;2022-10-22T13:25:59;4.97;;;2.08;;
46835;SDS011;32573;51.290;6.926;2022-10-22T13:28:30;6.63;;;2.08;;
46835;SDS011;32573;51.290;6.926;2022-10-22T13:31:00;7.95;;;2.50;;
46835;SDS011;32573;51.290;6.926;2022-10-22T13:33:36;6.97;;;2.08;;
46835;SDS011;32573;51.290;6.926;2022-10-22T13:36:07;4.53;;;1.77;;
46835;SDS011;32573;51.290;6.926;2022-10-22T13:38:41;4.75;;;1.50;;
46835;SDS011;32573;51.290;6.926;2022-10-22T13:41:20;4.38;;;1.30;;
46835;SDS011;32573;51.290;6.926;2022-10-22T13:43:49;4.22;;;1.25;;
46835;SDS011;32573;51.290;6.926;2022-10-22T13:46:18;3.92;;;1.00;;
46835;SDS011;32573;51.290;6.926;2022-10-22T13:48:48;3.55;;;0.90;;
46835;SDS011;32573;51.290;6.926;2022-10-22T13:51:19;2.92;;;0.88;;
46835;SDS011;32573;51.290;6.926;2022-10-22T13:53:51;4.47;;;1.00;;
46835;SDS011;32573;51.290;6.926;2022-10-22T13:56:20;5.70;;;1.20;;
46835;SDS011;32573;51.290;6.926;2022-10-22T13:58:49;4.35;;;0.90;;
46835;SDS011;32573;51.290;6.926;2022-10-22T14:01:19;4.05;;;1.00;;
46835;SDS011;32573;51.290;6.926;2022-10-22T14:03:49;4.85;;;1.20;;
46835;SDS011;32573;51.290;6.926;2022-10-22T14:06:20;2.95;;;0.90;;
46835;SDS011;32573;51.290;6.926;2022-10-22T14:08:52;4.22;;;1.08;;
46835;SDS011;32573;51.290;6.926;2022-10-22T14:11:24;3.42;;;0.95;;
46835;SDS011;32573;51.290;6.926;2022-10-22T14:13:54;2.50;;;0.82;;
46835;SDS011;32573;51.290;6.926;2022-10-22T14:16:23;2.17;;;0.85;;
46835;SDS011;32573;51.290;6.926;2022-10-22T14:18:53;2.45;;;0.98;;
46835;SDS011;32573;51.290;6.926;2022-10-22T14:21:22;1.92;;;0.80;;
46835;SDS011;32573;51.290;6.926;2022-10-22T14:23:52;3.45;;;0.93;;
46835;SDS011;32573;51.290;6.926;2022-10-22T14:26:22;3.67;;;1.02;;
46835;SDS011;32573;51.290;6.926;2022-10-22T14:28:53;3.80;;;1.02;;
46835;SDS011;32573;51.290;6.926;2022-10-22T14:31:38;3.17;;;0.82;;
46835;SDS011;32573;51.290;6.926;2022-10-22T14:34:10;3.47;;;0.85;;
46835;SDS011;32573;51.290;6.926;2022-10-22T14:36:40;3.08;;;1.00;;
46835;SDS011;32573;51.290;6.926;2022-10-22T14:39:11;4.18;;;0.80;;
46835;SDS011;32573;51.290;6.926;2022-10-22T14:41:39;1.88;;;0.82;;
46835;SDS011;32573;51.290;6.926;2022-10-22T14:44:08;3.67;;;1.00;;
46835;SDS011;32573;51.290;6.926;2022-10-22T14:46:40;2.90;;;0.80;;
46835;SDS011;32573;51.290;6.926;2022-10-22T14:49:10;1.92;;;0.70;;
46835;SDS011;32573;51.290;6.926;2022-10-22T14:51:38;1.35;;;0.70;;
46835;SDS011;32573;51.290;6.926;2022-10-22T14:54:06;2.78;;;0.80;;
46835;SDS011;32573;51.290;6.926;2022-10-22T14:56:36;3.17;;;0.82;;
46835;SDS011;32573;51.290;6.926;2022-10-22T14:59:05;2.08;;;0.80;;
46835;SDS011;32573;51.290;6.926;2022-10-22T15:01:33;2.17;;;0.90;;
46835;SDS011;32573;51.290;6.926;2022-10-22T15:04:01;4.22;;;1.30;;
46835;SDS011;32573;51.290;6.926;2022-10-22T15:06:30;3.30;;;1.60;;
46835;SDS011;32573;51.290;6.926;2022-10-22T15:08:58;5.32;;;1.67;;
46835;SDS011;32573;51.290;6.926;2022-10-22T15:11:27;3.53;;;1.20;;
46835;SDS011;32573;51.290;6.926;2022-10-22T15:13:56;3.40;;;1.00;;
46835;SDS011;32573;51.290;6.926;2022-10-22T15:16:25;2.22;;;1.00;;
46835;SDS011;32573;51.290;6.926;2022-10-22T15:18:53;3.67;;;1.10;;
46835;SDS011;32573;51.290;6.926;2022-10-22T15:21:22;2.65;;;0.90;;
46835;SDS011;32573;51.290;6.926;2022-10-22T15:23:51;2.33;;;0.90;;
46835;SDS011;32573;51.290;6.926;2022-10-22T15:26:19;2.08;;;0.80;;
46835;SDS011;32573;51.290;6.926;2022-10-22T15:28:49;3.10;;;0.90;;
46835;SDS011;32573;51.290;6.926;2022-10-22T15:31:39;3.10;;;0.80;;
46835;SDS011;32573;51.290;6.926;2022-10-22T15:34:19;2.38;;;0.98;;